Time;durP1;ratioP1;P1;durP2;ratioP2;P2;SDS_P1;SDS_P2;PMS_P1;PMS_P2;Temp;Humidity;BMP_temperature;BMP_pressure;BME280_temperature;BME280_humidity;BME280_pressure;Samples;Min_cycle;Max_cycle;Signal;HPM_P1;HPM_P2
2020/05/21 00:00:17;;;;;;;4.8;4.4;;;;;;;11.86;79.21777;942.5843;;;;
2020/05/21 00:02:51;;;;;;;4.6;4.2;;;;;;;11.84;79.44336;942.5634;;;;
2020/05/21 00:05:44;;;;;;;4.7;4.2;;;;;;;11.87;79.5166;942.4647;;;;
2020/05/21 00:07:42;;;;;;;6.3;4.1;;;;;;;11.87;79.49414;942.5947;;;;
2020/05/21 00:10:20;;;;;;;7;3.9;;;;;;;11.95;79.08496;942.5438;;;;
2020/05/21 00:12:33;;;;;;;5.6;3.9;;;;;;;11.97;78.7334;942.5751;;;;
2020/05/21 00:14:52;;;;;;;4.3;3.8;;;;;;;11.98;78.47363;942.5609;;;;
2020/05/21 00:17:33;;;;;;;4.3;3.9;;;;;;;12.06;78.08496;942.5436;;;;
2020/05/21 00:19:48;;;;;;;6;3.9;;;;;;;11.91;78.34375;942.5656;;;;
2020/05/21 00:22:22;;;;;;;7;3.8;;;;;;;11.8;78.9082;942.5115;;;;
2020/05/21 00:24:36;;;;;;;5.1;3.7;;;;;;;11.84;78.5957;942.5322;;;;
2020/05/21 00:27:01;;;;;;;5.3;3.9;;;;;;;11.88;78.55664;942.5342;;;;
2020/05/21 00:29:27;;;;;;;6.7;4.1;;;;;;;11.59;79.65039;942.5069;;;;
2020/05/21 00:31:52;;;;;;;7;4.3;;;;;;;11.68;79.12793;942.4603;;;;
2020/05/21 00:34:17;;;;;;;6.1;4.6;;;;;;;11.56;79.46094;942.4307;;;;
2020/05/21 00:36:43;;;;;;;6;4.4;;;;;;;11.56;79.41309;942.4529;;;;
2020/05/21 00:39:09;;;;;;;4.5;4;;;;;;;11.56;79.34668;942.3717;;;;
2020/05/21 00:41:35;;;;;;;6;3.7;;;;;;;11.36;80.30371;942.4964;;;;
2020/05/21 00:44:00;;;;;;;6.8;4.2;;;;;;;11.13;81.1875;942.4906;;;;
2020/05/21 00:46:27;;;;;;;6.3;4.2;;;;;;;11.09;81.56934;942.4869;;;;
2020/05/21 00:48:52;;;;;;;5.2;4.2;;;;;;;11.15;81.22559;942.4534;;;;
2020/05/21 00:51:20;;;;;;;4.8;4.3;;;;;;;11.19;81.23438;942.399;;;;
2020/05/21 00:53:45;;;;;;;6.1;4.3;;;;;;;11.24;81.13965;942.5068;;;;
2020/05/21 00:56:11;;;;;;;5.3;4.2;;;;;;;11.26;80.97168;942.4608;;;;
2020/05/21 00:58:37;;;;;;;5.4;4.1;;;;;;;11.27;80.64258;942.4609;;;;
2020/05/21 01:01:03;;;;;;;5;4.3;;;;;;;11.3;80.49902;942.423;;;;
2020/05/21 01:03:43;;;;;;;6;4.1;;;;;;;11.29;80.6582;942.4548;;;;
2020/05/21 01:06:01;;;;;;;5.9;4;;;;;;;11.36;80.08789;942.4439;;;;
2020/05/21 01:08:35;;;;;;;6.1;3.9;;;;;;;11.35;79.95898;942.3361;;;;
2020/05/21 01:11:10;;;;;;;4.5;4.1;;;;;;;11.3;80.00781;942.4645;;;;
2020/05/21 01:13:24;;;;;;;6.2;4.1;;;;;;;11.27;80.15137;942.4721;;;;
2020/05/21 01:18:20;;;;;;;4.2;3.8;;;;;;;11.41;79.36426;942.4296;;;;
2020/05/21 01:20:53;;;;;;;5.2;3.8;;;;;;;11.36;79.57129;942.423;;;;
2020/05/21 01:25:37;;;;;;;5.2;3.9;;;;;;;11.2;80.02344;942.4175;;;;
2020/05/21 01:27:55;;;;;;;6.9;3.9;;;;;;;11.06;80.68262;942.3582;;;;
2020/05/21 01:30:16;;;;;;;4.3;3.9;;;;;;;11.09;80.82617;942.4016;;;;
2020/05/21 01:32:53;;;;;;;4.3;3.9;;;;;;;11.02;81.20215;942.3823;;;;
2020/05/21 01:35:08;;;;;;;4.2;3.7;;;;;;;10.91;81.5127;942.3167;;;;
2020/05/21 01:37:30;;;;;;;5.3;3.8;;;;;;;11.01;81.04004;942.334;;;;
2020/05/21 01:39:54;;;;;;;4.6;3.8;;;;;;;11.03;80.64551;942.361;;;;
2020/05/21 01:42:19;;;;;;;4.2;3.7;;;;;;;10.98;80.7832;942.3663;;;;
2020/05/21 01:44:44;;;;;;;4.5;4.1;;;;;;;11.01;80.57129;942.3627;;;;
2020/05/21 01:47:10;;;;;;;4.7;4.3;;;;;;;11.03;80.39063;942.3664;;;;
2020/05/21 01:49:35;;;;;;;6.5;4.1;;;;;;;10.97;80.75781;942.3677;;;;
2020/05/21 01:52:03;;;;;;;4.9;4.4;;;;;;;10.93;80.80957;942.3823;;;;
2020/05/21 01:54:28;;;;;;;6.2;4.5;;;;;;;10.88;81.3252;942.3067;;;;
2020/05/21 01:56:53;;;;;;;4.7;4.2;;;;;;;10.9;81.30371;942.264;;;;
2020/05/21 01:59:18;;;;;;;5.5;4.3;;;;;;;10.86;81.32129;942.2913;;;;
2020/05/21 02:01:55;;;;;;;4.8;4.1;;;;;;;10.89;81.09668;942.2781;;;;
2020/05/21 02:04:09;;;;;;;4.8;4.2;;;;;;;10.89;80.91309;942.2742;;;;
2020/05/21 02:06:41;;;;;;;5.7;4.1;;;;;;;10.93;80.52051;942.2971;;;;
2020/05/21 02:09:00;;;;;;;5.6;4.2;;;;;;;10.91;80.4502;942.2864;;;;
2020/05/21 02:11:25;;;;;;;4.8;4.3;;;;;;;10.88;80.44531;942.2844;;;;
2020/05/21 02:16:43;;;;;;;7;4.2;;;;;;;10.86;80.21191;942.2355;;;;
2020/05/21 02:26:10;;;;;;;4.8;4.1;;;;;;;10.47;81.75098;942.3102;;;;
2020/05/21 02:40:56;;;;;;;4.8;4.4;;;;;;;10.23;83.45996;942.3059;;;;
2020/05/21 02:50:36;;;;;;;6;4.2;;;;;;;10.44;82.43848;942.2285;;;;
2020/05/21 03:14:55;;;;;;;6.2;3.9;;;;;;;10.45;82.29395;942.302;;;;
2020/05/21 03:19:29;;;;;;;4.1;3.7;;;;;;;10.71;81.46387;942.233;;;;
2020/05/21 03:29:21;;;;;;;4.3;3.9;;;;;;;10.72;82.61914;942.2866;;;;
2020/05/21 03:50:53;;;;;;;22;18.4;;;;;;;11.09;80.73535;942.2311;;;;
2020/05/21 03:53:04;;;;;;;72.2;56.9;;;;;;;11.08;80.42285;942.2731;;;;
2020/05/21 03:55:29;;;;;;;15.2;12.2;;;;;;;11.03;80.75781;942.2494;;;;
2020/05/21 03:57:54;;;;;;;4.1;3.7;;;;;;;10.96;81.00684;942.2258;;;;
2020/05/21 04:02:40;;;;;;;25.7;18.6;;;;;;;11.24;80.17871;942.2286;;;;
2020/05/21 04:07:30;;;;;;;3.9;3.6;;;;;;;11.24;80.09863;942.2477;;;;
2020/05/21 04:09:46;;;;;;;5.3;4.4;;;;;;;11.25;80.08887;942.1777;;;;
2020/05/21 04:12:11;;;;;;;5.9;5.4;;;;;;;11.35;79.86719;942.2419;;;;
2020/05/21 04:14:36;;;;;;;5.1;4.6;;;;;;;11.25;80.06738;942.3013;;;;
2020/05/21 04:22:12;;;;;;;4.5;4.1;;;;;;;11.13;80.65039;942.3361;;;;
2020/05/21 04:24:18;;;;;;;3.8;3.4;;;;;;;11.19;80.125;942.3799;;;;
2020/05/21 04:26:43;;;;;;;5.8;3.5;;;;;;;11.08;80.5625;942.2787;;;;
2020/05/21 04:30:01;;;;;;;4.4;3.7;;;;;;;11.17;80.72559;942.3995;;;;
2020/05/21 04:31:55;;;;;;;4;3.5;;;;;;;11.11;80.47754;942.3956;;;;
2020/05/21 04:34:30;;;;;;;4.8;3.5;;;;;;;11.29;80.32617;942.3711;;;;
2020/05/21 04:36:29;;;;;;;4.1;3.4;;;;;;;11.31;79.91797;942.3444;;;;
2020/05/21 04:38:54;;;;;;;5.2;3.5;;;;;;;11.53;79.55762;942.4111;;;;
2020/05/21 04:41:19;;;;;;;5.3;4.2;;;;;;;11.68;79.92871;942.4141;;;;
2020/05/21 04:43:47;;;;;;;5.4;4.5;;;;;;;11.85;79.3418;942.4797;;;;
2020/05/21 04:46:12;;;;;;;6.4;4.2;;;;;;;11.9;78.35352;942.493;;;;
2020/05/21 04:48:38;;;;;;;4.9;4;;;;;;;12;79.11816;942.5053;;;;
2020/05/21 04:51:03;;;;;;;6.6;3.8;;;;;;;12.18;78.31445;942.5018;;;;
2020/05/21 04:53:30;;;;;;;4.6;3.4;;;;;;;12.18;77.08789;942.4515;;;;
2020/05/21 04:55:55;;;;;;;3.4;3.1;;;;;;;12.36;77.63477;942.4878;;;;
2020/05/21 04:58:21;;;;;;;19;15.8;;;;;;;12.44;76.41016;942.4066;;;;
2020/05/21 05:00:46;;;;;;;30.8;18.8;;;;;;;12.5;75.96094;942.3959;;;;
2020/05/21 05:03:19;;;;;;;28.2;20.6;;;;;;;12.49;76.12207;942.5133;;;;
2020/05/21 05:05:45;;;;;;;9.1;6.7;;;;;;;12.67;75.52246;942.4695;;;;
2020/05/21 05:08:21;;;;;;;14.6;11.1;;;;;;;12.85;75.61133;942.4768;;;;
2020/05/21 05:15:43;;;;;;;3.5;3.2;;;;;;;13.29;74.93945;942.4437;;;;
2020/05/21 05:20:30;;;;;;;8.7;7;;;;;;;13.5;73.00977;942.51;;;;
2020/05/21 05:32:24;;;;;;;5.8;5;;;;;;;13.9;70.22363;942.5186;;;;
2020/05/21 05:42:22;;;;;;;11.9;9.9;;;;;;;14.24;69.10352;942.5386;;;;
2020/05/21 05:44:59;;;;;;;14.7;11.2;;;;;;;14.47;68.44922;942.5669;;;;
2020/05/21 05:50:13;;;;;;;2.9;2.3;;;;;;;15.77;64.70215;942.5305;;;;
2020/05/21 05:59:05;;;;;;;2.7;2;;;;;;;16.78;61.93066;942.5386;;;;
2020/05/21 06:09:10;;;;;;;3.9;2.1;;;;;;;16.94;61.52637;942.5851;;;;
2020/05/21 06:21:28;;;;;;;2.4;2.2;;;;;;;15.24;64.49512;942.5366;;;;
2020/05/21 06:23:03;;;;;;;4.5;2.5;;;;;;;15.36;65.92285;942.6022;;;;
2020/05/21 06:25:28;;;;;;;3.2;2.3;;;;;;;15.55;65.82227;942.6334;;;;
2020/05/21 06:28:02;;;;;;;4;2.4;;;;;;;15.67;63.79688;942.6208;;;;
2020/05/21 06:30:27;;;;;;;5.2;4.7;;;;;;;15.66;63.66699;942.6602;;;;
2020/05/21 06:32:53;;;;;;;5.7;5;;;;;;;15.91;63.91211;942.6434;;;;
2020/05/21 06:35:18;;;;;;;3.5;2.7;;;;;;;16.15;63.41504;942.6475;;;;
2020/05/21 06:37:42;;;;;;;3.4;2.7;;;;;;;16.18;62.36719;942.6177;;;;
2020/05/21 06:40:09;;;;;;;3.8;2.8;;;;;;;16.03;63.13281;942.6256;;;;
2020/05/21 06:42:34;;;;;;;2.6;2.2;;;;;;;16.04;63.06348;942.6086;;;;
2020/05/21 06:45:01;;;;;;;3.9;2.5;;;;;;;16.32;65.50977;942.5898;;;;
2020/05/21 06:47:25;;;;;;;3.4;2.6;;;;;;;16.58;64.86621;942.6199;;;;
2020/05/21 06:49:53;;;;;;;4.2;2.4;;;;;;;16.84;63.30664;942.6543;;;;
2020/05/21 06:52:18;;;;;;;2.6;2.2;;;;;;;17.04;63.63672;942.6208;;;;
2020/05/21 06:54:44;;;;;;;2.9;2.3;;;;;;;17.14;62.01758;942.5894;;;;
2020/05/21 06:57:09;;;;;;;4.3;2.3;;;;;;;18.19;60.77148;942.6063;;;;
2020/05/21 06:59:36;;;;;;;2.7;1.9;;;;;;;20.07;53.90039;942.5519;;;;
2020/05/21 07:02:01;;;;;;;4.5;2.7;;;;;;;20.63;50.91895;942.6011;;;;
2020/05/21 07:04:27;;;;;;;9.4;2;;;;;;;21.63;49.80566;942.5833;;;;
2020/05/21 07:06:52;;;;;;;4.8;1.9;;;;;;;21.73;48.45703;942.6222;;;;
2020/05/21 07:09:18;;;;;;;3.7;1.7;;;;;;;22.06;47.89453;942.5719;;;;
2020/05/21 07:11:43;;;;;;;3.2;1.7;;;;;;;22.42;47.24219;942.5399;;;;
2020/05/21 07:14:09;;;;;;;2.9;1.6;;;;;;;22.97;46.00879;942.5388;;;;
2020/05/21 07:19:14;;;;;;;2;1.6;;;;;;;23.03;46.32031;942.5624;;;;
2020/05/21 07:21:28;;;;;;;2.5;1.7;;;;;;;24.55;45.44043;942.6186;;;;
2020/05/21 07:26:16;;;;;;;2;1.6;;;;;;;28.11;37.36719;942.5181;;;;
2020/05/21 07:28:41;;;;;;;3.4;1.8;;;;;;;30.12;32.1875;942.5055;;;;
2020/05/21 07:31:06;;;;;;;3.5;1.5;;;;;;;31.59;29.16699;942.4899;;;;
2020/05/21 07:33:31;;;;;;;3.2;1.4;;;;;;;32.75;28.07715;942.4554;;;;
2020/05/21 07:35:58;;;;;;;2.1;1.3;;;;;;;33.77;26.28711;942.4637;;;;
2020/05/21 07:38:23;;;;;;;1.6;1.2;;;;;;;34.31;25.04199;942.4649;;;;
2020/05/21 07:40:50;;;;;;;2;1.2;;;;;;;34.9;23.69922;942.4391;;;;
2020/05/21 07:43:14;;;;;;;1.7;1.1;;;;;;;34.9;23.97656;942.448;;;;
2020/05/21 07:53:10;;;;;;;1.3;1.1;;;;;;;35.71;23.76563;942.361;;;;
2020/05/21 07:55:19;;;;;;;1.8;1;;;;;;;35.27;23.5127;942.4047;;;;
2020/05/21 07:57:52;;;;;;;1.8;1;;;;;;;34.8;24.28516;942.3836;;;;
2020/05/21 08:00:55;;;;;;;1.4;1.2;;;;;;;34.68;23.71191;942.3614;;;;
2020/05/21 08:07:41;;;;;;;2.1;1.2;;;;;;;35.05;24.97363;942.3243;;;;
2020/05/21 08:10:14;;;;;;;1.7;1.1;;;;;;;34.81;23.12793;942.3865;;;;
2020/05/21 08:17:34;;;;;;;1.8;1.4;;;;;;;34.96;23.73828;942.3607;;;;
2020/05/21 08:19:41;;;;;;;1.6;1.3;;;;;;;35.04;22.8623;942.3569;;;;
2020/05/21 08:21:58;;;;;;;2.2;1.2;;;;;;;34.21;23.94043;942.3215;;;;
2020/05/21 08:24:24;;;;;;;2.9;1.3;;;;;;;35.06;22.875;942.3164;;;;
2020/05/21 08:26:50;;;;;;;3.3;1.2;;;;;;;34.4;23.03516;942.3489;;;;
2020/05/21 08:29:14;;;;;;;2;1.1;;;;;;;34.41;23.83008;942.4081;;;;
2020/05/21 08:31:41;;;;;;;1.8;1;;;;;;;34.79;23.79004;942.3887;;;;
2020/05/21 08:34:06;;;;;;;2.9;1.1;;;;;;;34.81;23.24805;942.3055;;;;
2020/05/21 08:36:32;;;;;;;1.8;1;;;;;;;34.65;22.87891;942.3201;;;;
2020/05/21 08:38:58;;;;;;;1.4;1.1;;;;;;;34.59;23.27344;942.3014;;;;
2020/05/21 08:41:22;;;;;;;2.4;1;;;;;;;34.5;23.4375;942.3384;;;;
2020/05/21 08:43:48;;;;;;;2.6;1;;;;;;;33.34;24.50781;942.3203;;;;
2020/05/21 08:46:13;;;;;;;2.6;1;;;;;;;33.02;25.37891;942.3189;;;;
2020/05/21 08:48:39;;;;;;;1.9;1.1;;;;;;;32.33;26.39551;942.2709;;;;
2020/05/21 08:51:04;;;;;;;3;1.3;;;;;;;31.86;26.9082;942.3127;;;;
2020/05/21 08:53:30;;;;;;;3.1;1.3;;;;;;;31.33;28.59961;942.3251;;;;
2020/05/21 08:55:55;;;;;;;2.5;1.3;;;;;;;31.2;27.43066;942.3558;;;;
2020/05/21 08:58:22;;;;;;;1.8;1.1;;;;;;;30.84;28.04297;942.2878;;;;
2020/05/21 09:00:47;;;;;;;1.7;1.2;;;;;;;30.77;28.27734;942.2341;;;;
2020/05/21 09:03:13;;;;;;;2.9;1.3;;;;;;;30.2;31.11914;942.2617;;;;
2020/05/21 09:05:38;;;;;;;2.2;1.3;;;;;;;29.71;30.40625;942.3342;;;;
2020/05/21 09:08:03;;;;;;;3;1.4;;;;;;;29.58;31.24316;942.3022;;;;
2020/05/21 09:10:32;;;;;;;3.3;1.2;;;;;;;29.43;30.45801;942.3102;;;;
2020/05/21 09:12:57;;;;;;;3.8;1.4;;;;;;;29.45;30.8291;942.3491;;;;
2020/05/21 09:15:23;;;;;;;2.7;1.3;;;;;;;29.26;31.87598;942.3513;;;;
2020/05/21 09:17:48;;;;;;;4.5;1.6;;;;;;;28.72;34.13477;942.3655;;;;
2020/05/21 09:20:13;;;;;;;3.1;1.4;;;;;;;28.77;34.40039;942.3456;;;;
2020/05/21 09:22:38;;;;;;;2.7;1.4;;;;;;;28.68;31.26465;942.3759;;;;
2020/05/21 09:25:03;;;;;;;2.5;1.3;;;;;;;28.39;33.25293;942.3164;;;;
2020/05/21 09:27:28;;;;;;;3.1;1.2;;;;;;;28.62;33.93652;942.3409;;;;
2020/05/21 09:29:53;;;;;;;3.2;1.7;;;;;;;28.55;34.44336;942.3169;;;;
2020/05/21 09:32:19;;;;;;;2.3;1.7;;;;;;;28.32;34.11621;942.3354;;;;
2020/05/21 09:34:44;;;;;;;4.4;1.6;;;;;;;28.68;34.27441;942.3077;;;;
2020/05/21 09:37:10;;;;;;;2.9;1.6;;;;;;;28.92;33.31641;942.3564;;;;
2020/05/21 09:39:36;;;;;;;3;1.4;;;;;;;28.67;33.33301;942.3017;;;;
2020/05/21 09:42:02;;;;;;;2.1;1.3;;;;;;;28.96;33.08105;942.3176;;;;
2020/05/21 09:44:27;;;;;;;3;1.3;;;;;;;28.99;33.66699;942.3567;;;;
2020/05/21 09:46:54;;;;;;;2.6;1.4;;;;;;;28.94;33.68652;942.3647;;;;
2020/05/21 09:49:18;;;;;;;3.5;1.4;;;;;;;28.84;34.27441;942.4045;;;;
2020/05/21 09:51:47;;;;;;;2.3;1.4;;;;;;;28.52;33.78516;942.3656;;;;
2020/05/21 09:54:12;;;;;;;2.5;1.2;;;;;;;28.69;32.44238;942.3481;;;;
2020/05/21 09:56:38;;;;;;;3.5;1.3;;;;;;;28.63;33.47363;942.3734;;;;
2020/05/21 09:59:04;;;;;;;2.1;1.3;;;;;;;28.48;33.66406;942.3095;;;;
2020/05/21 10:01:29;;;;;;;3;1.4;;;;;;;28.42;36.40625;942.3582;;;;
2020/05/21 10:03:54;;;;;;;3.8;1.5;;;;;;;28.17;34.74707;942.3321;;;;
2020/05/21 10:06:19;;;;;;;2.3;1.5;;;;;;;28.01;34.15234;942.3345;;;;
2020/05/21 10:08:44;;;;;;;2.7;1.4;;;;;;;27.9;34.74902;942.3143;;;;
2020/05/21 10:11:09;;;;;;;2.6;1.3;;;;;;;27.75;33.27734;942.3248;;;;
2020/05/21 10:13:34;;;;;;;3.7;1.4;;;;;;;27.9;34.38184;942.3575;;;;
2020/05/21 10:15:59;;;;;;;2.5;1.2;;;;;;;27.91;35.01074;942.2859;;;;
2020/05/21 10:18:29;;;;;;;1.7;1.4;;;;;;;28.07;33.60938;942.2516;;;;
2020/05/21 10:20:54;;;;;;;2.3;1.2;;;;;;;28.39;34.13281;942.2581;;;;
2020/05/21 10:23:19;;;;;;;1.6;1.2;;;;;;;28.71;32.39551;942.2498;;;;
2020/05/21 10:25:45;;;;;;;3.8;1.2;;;;;;;28.7;32.25293;942.2436;;;;
2020/05/21 10:28:10;;;;;;;4.2;1.4;;;;;;;28.71;31.66992;942.2352;;;;
2020/05/21 10:30:39;;;;;;;2.6;1.4;;;;;;;29.07;31.29102;942.188;;;;
2020/05/21 10:33:04;;;;;;;2.4;1.3;;;;;;;28.9;32.62402;942.2043;;;;
2020/05/21 10:35:30;;;;;;;2.2;1.1;;;;;;;28.92;31.92383;942.2581;;;;
2020/05/21 10:37:55;;;;;;;1.7;1.1;;;;;;;29.29;32.16406;942.2225;;;;
2020/05/21 10:40:23;;;;;;;3.2;1.3;;;;;;;29.23;32.08789;942.2175;;;;
2020/05/21 10:42:48;;;;;;;4.5;1.5;;;;;;;29.06;32.13574;942.2819;;;;
2020/05/21 10:45:22;;;;;;;5.5;1.4;;;;;;;29.08;33.50684;942.2357;;;;
2020/05/21 10:47:41;;;;;;;2.6;1.3;;;;;;;28.95;32.44922;942.2173;;;;
2020/05/21 10:50:17;;;;;;;1.9;1.2;;;;;;;28.46;33.99512;942.2179;;;;
2020/05/21 10:57:57;;;;;;;4.2;1.5;;;;;;;27.49;35.2041;942.1426;;;;
2020/05/21 11:00:21;;;;;;;2.8;1.3;;;;;;;27.62;36.53125;942.1166;;;;
2020/05/21 11:14:35;;;;;;;2.3;1.1;;;;;;;27.79;34.75195;942.025;;;;
2020/05/21 11:16:56;;;;;;;2.9;1.2;;;;;;;27.36;34.90918;941.9205;;;;
2020/05/21 11:21:46;;;;;;;3.2;1.4;;;;;;;27.04;37.83594;941.9811;;;;
2020/05/21 11:26:14;;;;;;;5.1;1.4;;;;;;;26.42;36.5293;941.9395;;;;
2020/05/21 11:28:39;;;;;;;1.6;1.2;;;;;;;26.47;36.39063;941.9963;;;;
2020/05/21 11:31:04;;;;;;;3.4;1.4;;;;;;;26.64;37.51758;941.9127;;;;
2020/05/21 11:33:33;;;;;;;1.7;1.2;;;;;;;26.66;37.64941;941.9189;;;;
2020/05/21 11:36:08;;;;;;;3.9;1.3;;;;;;;26.76;36.43848;941.9446;;;;
2020/05/21 11:38:33;;;;;;;2.5;1.4;;;;;;;26.57;35.55859;941.9222;;;;
2020/05/21 11:41:02;;;;;;;4.7;1.4;;;;;;;26.56;37.45117;941.8951;;;;
2020/05/21 11:43:27;;;;;;;3.3;1.2;;;;;;;26.77;37.72949;941.8943;;;;
2020/05/21 11:46:42;;;;;;;5.1;1.3;;;;;;;26.77;38.2627;941.8111;;;;
2020/05/21 11:49:07;;;;;;;13.6;1.6;;;;;;;26.85;36.94336;941.8222;;;;
2020/05/21 11:51:32;;;;;;;5;1.4;;;;;;;26.69;35.93457;941.8334;;;;
2020/05/21 11:53:57;;;;;;;2;1.2;;;;;;;26.39;36.34863;941.8125;;;;
2020/05/21 11:56:22;;;;;;;3.5;1.4;;;;;;;26.16;35.9043;941.7795;;;;
2020/05/21 11:58:53;;;;;;;4.9;1.4;;;;;;;26.26;37.20215;941.7684;;;;
2020/05/21 12:01:18;;;;;;;2.3;1.4;;;;;;;26.22;36.50098;941.7767;;;;
2020/05/21 12:03:43;;;;;;;4.3;1.4;;;;;;;26.09;37.49609;941.7433;;;;
2020/05/21 12:06:22;;;;;;;3.8;1.3;;;;;;;25.81;37.93359;941.6867;;;;
2020/05/21 12:08:47;;;;;;;4.3;1.2;;;;;;;25.85;38.3252;941.6626;;;;
2020/05/21 12:11:13;;;;;;;2.5;1.2;;;;;;;25.96;37.25977;941.7277;;;;
2020/05/21 12:13:38;;;;;;;2.6;1.4;;;;;;;26.07;36.48828;941.7092;;;;
2020/05/21 12:16:32;;;;;;;2;1.3;;;;;;;26.19;37.81055;941.7291;;;;
2020/05/21 12:18:57;;;;;;;2.3;1.3;;;;;;;26.19;38.76953;941.6498;;;;
2020/05/21 12:21:22;;;;;;;3.3;1.2;;;;;;;26.14;36.84961;941.6006;;;;
2020/05/21 12:23:47;;;;;;;4.2;1.4;;;;;;;25.87;36.37793;941.5283;;;;
2020/05/21 12:26:12;;;;;;;2.4;1.3;;;;;;;25.6;37.12305;941.5491;;;;
2020/05/21 12:28:38;;;;;;;2.1;1.3;;;;;;;25.72;36.57715;941.5137;;;;
2020/05/21 12:31:04;;;;;;;4.6;1.3;;;;;;;25.9;36.54492;941.5386;;;;
2020/05/21 12:33:30;;;;;;;2.5;1.4;;;;;;;26.08;37.9082;941.5103;;;;
2020/05/21 12:35:55;;;;;;;2.5;1.3;;;;;;;26.3;36.88574;941.4606;;;;
2020/05/21 12:38:22;;;;;;;3.9;1.5;;;;;;;26.55;35.40332;941.4133;;;;
2020/05/21 12:40:47;;;;;;;3;1.3;;;;;;;26.55;35.81738;941.3994;;;;
2020/05/21 12:43:12;;;;;;;3.3;1.2;;;;;;;26.68;37.09473;941.3616;;;;
2020/05/21 12:45:39;;;;;;;5;1.3;;;;;;;26.46;37.64453;941.3762;;;;
2020/05/21 12:48:05;;;;;;;1.5;1.1;;;;;;;26.19;36.67676;941.4373;;;;
2020/05/21 12:50:34;;;;;;;2.9;1.2;;;;;;;26.36;37.26953;941.4138;;;;
2020/05/21 12:52:59;;;;;;;3;1.3;;;;;;;26.62;36.95898;941.3668;;;;
2020/05/21 12:55:24;;;;;;;1.8;1.2;;;;;;;26.56;37.39258;941.377;;;;
2020/05/21 12:57:50;;;;;;;5;1.2;;;;;;;26.4;37.6748;941.3974;;;;
2020/05/21 13:00:18;;;;;;;2.7;1.2;;;;;;;26.45;34.92188;941.3787;;;;
2020/05/21 13:02:42;;;;;;;1.5;1.2;;;;;;;26.34;35.04297;941.3428;;;;
2020/05/21 13:05:09;;;;;;;1.7;1.1;;;;;;;26.42;34.71777;941.3831;;;;
2020/05/21 13:07:44;;;;;;;3.1;1.2;;;;;;;26.34;34.47559;941.342;;;;
2020/05/21 13:10:00;;;;;;;1.8;1.1;;;;;;;26.42;35.25;941.3197;;;;
2020/05/21 13:19:41;;;;;;;2;1.1;;;;;;;25.78;38.90039;941.3158;;;;
2020/05/21 13:31:53;;;;;;;2.9;1.2;;;;;;;25.1;37.67188;941.3457;;;;
2020/05/21 13:34:13;;;;;;;1.6;1.2;;;;;;;24.94;37.43457;941.2841;;;;
2020/05/21 13:36:38;;;;;;;39.1;2.7;;;;;;;24.58;38.5127;941.2794;;;;
2020/05/21 13:39:04;;;;;;;3.8;1.2;;;;;;;24.64;41.18164;941.2875;;;;
2020/05/21 13:41:30;;;;;;;3.6;1.2;;;;;;;24.87;39.94141;941.2137;;;;
2020/05/21 13:43:55;;;;;;;3.2;1.3;;;;;;;25.02;40.13184;941.2722;;;;
2020/05/21 13:46:20;;;;;;;3.8;1.2;;;;;;;24.98;40.41113;941.2711;;;;
2020/05/21 13:48:46;;;;;;;12.4;1.6;;;;;;;25.09;39.66602;941.2378;;;;
2020/05/21 13:51:11;;;;;;;1.6;1.2;;;;;;;25.16;40.20313;941.2188;;;;
2020/05/21 13:56:05;;;;;;;3.3;1.4;;;;;;;25.27;39.01953;941.2217;;;;
2020/05/21 13:58:32;;;;;;;4.3;1.5;;;;;;;25.24;37.15332;941.199;;;;
2020/05/21 14:00:54;;;;;;;1.3;1.1;;;;;;;25.27;39.0918;941.197;;;;
2020/05/21 14:03:18;;;;;;;1.8;1.2;;;;;;;25.21;38.03516;941.205;;;;
2020/05/21 14:05:43;;;;;;;2.6;1.2;;;;;;;25.23;37.80176;941.1834;;;;
2020/05/21 14:08:09;;;;;;;2.1;1.1;;;;;;;25.28;37.58105;941.058;;;;
2020/05/21 14:17:54;;;;;;;3.2;1.3;;;;;;;25.06;36.72461;941.1486;;;;
2020/05/21 14:22:53;;;;;;;3.6;1.3;;;;;;;24.88;37.14551;941.1197;;;;
2020/05/21 14:25:14;;;;;;;1.9;1.2;;;;;;;24.89;38.50391;941.1894;;;;
2020/05/21 14:27:30;;;;;;;2.1;1.5;;;;;;;24.88;38.05469;941.1505;;;;
2020/05/21 14:29:56;;;;;;;3.8;1.4;;;;;;;24.79;35.91211;941.1614;;;;
2020/05/21 14:32:21;;;;;;;1.5;1.3;;;;;;;24.6;36.81641;941.1771;;;;
2020/05/21 14:37:14;;;;;;;3.1;1.3;;;;;;;24.35;37.84375;941.23;;;;
2020/05/21 14:39:36;;;;;;;3.7;1.5;;;;;;;24.17;38.08887;941.1777;;;;
2020/05/21 14:42:01;;;;;;;4.4;1.4;;;;;;;24.13;39.81641;941.2597;;;;
2020/05/21 14:49:27;;;;;;;7.6;1.6;;;;;;;23.61;38.96875;941.1255;;;;
2020/05/21 14:56:47;;;;;;;3.3;1.4;;;;;;;23.61;40.04004;941.1766;;;;
2020/05/21 14:59:00;;;;;;;1.9;1.5;;;;;;;23.56;40.41211;941.1644;;;;
2020/05/21 15:01:38;;;;;;;2.8;1.4;;;;;;;23.62;41.05371;941.1623;;;;
2020/05/21 15:04:33;;;;;;;3;1.4;;;;;;;23.43;39.41309;941.1949;;;;
2020/05/21 15:06:18;;;;;;;2.8;1.3;;;;;;;23.32;39.27344;941.2592;;;;
2020/05/21 15:08:59;;;;;;;2.6;1.4;;;;;;;23.32;39.62598;941.274;;;;
2020/05/21 15:11:10;;;;;;;3.1;1.5;;;;;;;23.38;39.5498;941.3027;;;;
2020/05/21 15:19:07;;;;;;;4.3;1.4;;;;;;;23.37;41.23047;941.2342;;;;
2020/05/21 15:20:48;;;;;;;2.6;1.5;;;;;;;23.36;42.12305;941.2855;;;;
2020/05/21 15:23:13;;;;;;;4.1;2.4;;;;;;;23.35;40.38086;941.2071;;;;
2020/05/21 15:25:38;;;;;;;2.8;1.7;;;;;;;23.37;41.34766;941.2902;;;;
2020/05/21 15:28:04;;;;;;;2.7;1.8;;;;;;;23.35;40.57031;941.2403;;;;
2020/05/21 15:30:29;;;;;;;3;1.8;;;;;;;23.33;41.01465;941.2598;;;;
2020/05/21 15:32:54;;;;;;;7.2;4.4;;;;;;;23.24;39.39648;941.2792;;;;
2020/05/21 15:36:01;;;;;;;3.4;1.9;;;;;;;23.08;39.47656;941.2512;;;;
2020/05/21 15:37:45;;;;;;;2.5;1.6;;;;;;;23.03;39.92969;941.2749;;;;
2020/05/21 15:40:10;;;;;;;1.9;1.4;;;;;;;23.01;40.11523;941.3143;;;;
2020/05/21 15:42:35;;;;;;;2.2;1.4;;;;;;;22.9;39.94141;941.3544;;;;
2020/05/21 15:45:00;;;;;;;3.5;1.6;;;;;;;22.85;40.71191;941.3025;;;;
2020/05/21 15:47:26;;;;;;;2.4;1.4;;;;;;;22.76;41.50195;941.3211;;;;
2020/05/21 15:49:57;;;;;;;2.4;1.6;;;;;;;22.69;41.50684;941.3842;;;;
2020/05/21 15:52:16;;;;;;;2.7;1.6;;;;;;;22.59;42.14355;941.3872;;;;
2020/05/21 15:57:15;;;;;;;1.8;1.4;;;;;;;22.52;42.38281;941.4398;;;;
2020/05/21 15:59:39;;;;;;;4;1.6;;;;;;;22.54;42.80762;941.4422;;;;
2020/05/21 16:04:24;;;;;;;3.6;1.5;;;;;;;22.56;43.61816;941.4824;;;;
2020/05/21 16:06:51;;;;;;;3.1;1.6;;;;;;;22.48;43.18848;941.4182;;;;
2020/05/21 16:09:16;;;;;;;3.2;1.5;;;;;;;22.42;42.18652;941.4807;;;;
2020/05/21 16:11:43;;;;;;;1.6;1.5;;;;;;;22.45;43.39746;941.5362;;;;
2020/05/21 16:14:08;;;;;;;1.8;1.5;;;;;;;22.44;42.82129;941.5948;;;;
2020/05/21 16:16:57;;;;;;;2.3;1.4;;;;;;;22.49;43.03711;941.6013;;;;
2020/05/21 16:19:03;;;;;;;4.2;1.6;;;;;;;22.44;42.26953;941.6573;;;;
2020/05/21 16:21:33;;;;;;;2.3;1.8;;;;;;;22.48;41.4873;941.6238;;;;
2020/05/21 16:23:55;;;;;;;5.9;2.8;;;;;;;22.64;42.75879;941.6594;;;;
2020/05/21 16:26:20;;;;;;;5.9;3.5;;;;;;;22.74;42.42676;941.6231;;;;
2020/05/21 16:33:46;;;;;;;3.3;1.4;;;;;;;22.61;42.12109;941.5847;;;;
2020/05/21 16:36:41;;;;;;;3.5;1.8;;;;;;;22.62;43.63672;941.6297;;;;
2020/05/21 16:45:52;;;;;;;3.1;1.6;;;;;;;22.4;42.35938;941.7687;;;;
2020/05/21 16:48:14;;;;;;;3.7;1.8;;;;;;;22.34;42.80078;941.8142;;;;
2020/05/21 16:52:56;;;;;;;2.6;1.8;;;;;;;22.36;42.64941;941.8193;;;;
2020/05/21 16:55:17;;;;;;;4.4;1.8;;;;;;;22.42;42.99512;941.8599;;;;
2020/05/21 16:57:42;;;;;;;2;1.6;;;;;;;22.48;43.0127;941.7504;;;;
2020/05/21 17:00:07;;;;;;;7.1;1.8;;;;;;;22.46;43.46777;941.8466;;;;
2020/05/21 17:02:35;;;;;;;3.2;1.8;;;;;;;22.43;43.25391;941.9207;;;;
2020/05/21 17:07:29;;;;;;;4.4;1.8;;;;;;;22.33;43.43164;941.8983;;;;
2020/05/21 17:09:49;;;;;;;3.9;1.8;;;;;;;22.15;44.30566;941.9373;;;;
2020/05/21 17:12:14;;;;;;;4.4;1.7;;;;;;;22.08;43.8418;941.9474;;;;
2020/05/21 17:14:39;;;;;;;5.4;1.8;;;;;;;22.01;43.89355;941.9667;;;;
2020/05/21 17:17:06;;;;;;;4.1;1.7;;;;;;;21.84;43.92285;941.9317;;;;
2020/05/21 17:21:55;;;;;;;4.2;1.8;;;;;;;21.81;44.18945;942.05;;;;
2020/05/21 17:24:21;;;;;;;3.3;1.8;;;;;;;21.79;44.17676;942.0692;;;;
2020/05/21 17:26:46;;;;;;;2.9;1.4;;;;;;;21.77;45.0293;942.0559;;;;
2020/05/21 17:29:13;;;;;;;4.2;1.7;;;;;;;21.76;45.09863;942.1122;;;;
2020/05/21 17:31:39;;;;;;;3.6;1.8;;;;;;;21.75;44.96875;942.0808;;;;
2020/05/21 17:34:04;;;;;;;2.1;1.8;;;;;;;21.7;45.31445;942.1194;;;;
2020/05/21 17:36:29;;;;;;;3.5;1.6;;;;;;;21.66;44.81934;942.1838;;;;
2020/05/21 17:38:55;;;;;;;2.8;1.6;;;;;;;21.62;45.5293;942.165;;;;
2020/05/21 17:41:20;;;;;;;2.6;1.7;;;;;;;21.55;45.6748;942.1806;;;;
2020/05/21 17:43:47;;;;;;;4.2;2.4;;;;;;;21.45;45.33594;942.2668;;;;
2020/05/21 17:46:12;;;;;;;5.3;2.5;;;;;;;21.41;45.49609;942.3025;;;;
2020/05/21 17:48:38;;;;;;;5.9;2.3;;;;;;;21.35;45.5498;942.3047;;;;
2020/05/21 17:51:03;;;;;;;4;1.8;;;;;;;21.25;45.86621;942.4095;;;;
2020/05/21 17:53:28;;;;;;;2.2;1.7;;;;;;;21.17;45.8916;942.3915;;;;
2020/05/21 17:56:01;;;;;;;3.8;1.6;;;;;;;21.04;45.91406;942.4481;;;;
2020/05/21 17:58:26;;;;;;;2.7;1.7;;;;;;;21.02;46.35645;942.4216;;;;
2020/05/21 18:00:51;;;;;;;3.1;1.6;;;;;;;20.98;46.42285;942.3892;;;;
2020/05/21 18:03:17;;;;;;;2.4;1.7;;;;;;;20.99;46.92676;942.3113;;;;
2020/05/21 18:05:42;;;;;;;2.9;1.7;;;;;;;20.94;47.58691;942.4097;;;;
2020/05/21 18:08:07;;;;;;;4;1.8;;;;;;;20.84;47.27246;942.4582;;;;
2020/05/21 18:10:33;;;;;;;3.5;1.7;;;;;;;20.6;48.1582;942.4818;;;;
2020/05/21 18:12:58;;;;;;;3.9;1.9;;;;;;;20.6;49.54785;942.4534;;;;
2020/05/21 18:15:23;;;;;;;3.4;1.9;;;;;;;20.59;49.54785;942.4277;;;;
2020/05/21 18:17:49;;;;;;;2.9;1.8;;;;;;;20.5;49.07031;942.5308;;;;
2020/05/21 18:20:33;;;;;;;2.2;1.6;;;;;;;20.44;48.91211;942.5362;;;;
2020/05/21 18:25:11;;;;;;;3.8;1.9;;;;;;;20.41;49.99414;942.5723;;;;
2020/05/21 18:33:28;;;;;;;3.6;2.9;;;;;;;20.02;52.72852;942.7244;;;;
2020/05/21 19:07:00;;;;;;;9.6;5.8;;;;;;;18.84;55.87988;943.1021;;;;
2020/05/21 19:09:14;;;;;;;11.4;6.4;;;;;;;18.78;56.0127;943.0736;;;;
2020/05/21 19:11:42;;;;;;;10.1;5.7;;;;;;;18.75;57.43945;943.1014;;;;